sensor_id;sensor_type;location;lat;lon;timestamp;P1;durP1;ratioP1;P2;durP2;ratioP2
34499;SDS011;20745;50.882;6.962;2023-04-09T00:03:57;25.83;;;10.30;;
34499;SDS011;20745;50.882;6.962;2023-04-09T00:13:57;24.88;;;9.73;;
34499;SDS011;20745;50.882;6.962;2023-04-09T00:23:57;26.10;;;9.10;;
34499;SDS011;20745;50.882;6.962;2023-04-09T00:33:57;23.20;;;8.88;;
34499;SDS011;20745;50.882;6.962;2023-04-09T00:43:57;24.70;;;8.35;;
34499;SDS011;20745;50.882;6.962;2023-04-09T00:53:58;21.10;;;8.38;;
34499;SDS011;20745;50.882;6.962;2023-04-09T01:03:58;23.95;;;8.48;;
34499;SDS011;20745;50.882;6.962;2023-04-09T01:24:08;21.88;;;8.13;;
34499;SDS011;20745;50.882;6.962;2023-04-09T01:34:15;21.77;;;9.15;;
34499;SDS011;20745;50.882;6.962;2023-04-09T01:44:17;20.85;;;8.85;;
34499;SDS011;20745;50.882;6.962;2023-04-09T01:54:17;20.92;;;8.02;;
34499;SDS011;20745;50.882;6.962;2023-04-09T02:04:20;20.83;;;8.48;;
34499;SDS011;20745;50.882;6.962;2023-04-09T02:14:21;20.40;;;8.35;;
34499;SDS011;20745;50.882;6.962;2023-04-09T02:24:23;20.55;;;8.35;;
34499;SDS011;20745;50.882;6.962;2023-04-09T02:34:23;19.75;;;8.35;;
34499;SDS011;20745;50.882;6.962;2023-04-09T02:44:23;19.40;;;8.05;;
34499;SDS011;20745;50.882;6.962;2023-04-09T02:54:24;17.80;;;7.40;;
34499;SDS011;20745;50.882;6.962;2023-04-09T03:04:24;17.23;;;7.57;;
34499;SDS011;20745;50.882;6.962;2023-04-09T03:14:24;18.10;;;7.13;;
34499;SDS011;20745;50.882;6.962;2023-04-09T03:24:24;16.15;;;6.60;;
34499;SDS011;20745;50.882;6.962;2023-04-09T03:34:24;17.05;;;6.38;;
34499;SDS011;20745;50.882;6.962;2023-04-09T03:44:25;17.27;;;6.28;;
34499;SDS011;20745;50.882;6.962;2023-04-09T03:54:28;13.40;;;5.53;;
34499;SDS011;20745;50.882;6.962;2023-04-09T04:04:28;12.43;;;4.90;;
34499;SDS011;20745;50.882;6.962;2023-04-09T04:14:28;13.40;;;4.90;;
34499;SDS011;20745;50.882;6.962;2023-04-09T04:24:28;12.57;;;4.40;;
34499;SDS011;20745;50.882;6.962;2023-04-09T04:34:28;12.68;;;4.78;;
34499;SDS011;20745;50.882;6.962;2023-04-09T04:44:29;12.75;;;4.55;;
34499;SDS011;20745;50.882;6.962;2023-04-09T04:54:29;12.63;;;4.10;;
34499;SDS011;20745;50.882;6.962;2023-04-09T05:04:29;8.13;;;3.35;;
34499;SDS011;20745;50.882;6.962;2023-04-09T05:14:29;9.70;;;3.90;;
34499;SDS011;20745;50.882;6.962;2023-04-09T05:24:29;9.68;;;3.60;;
34499;SDS011;20745;50.882;6.962;2023-04-09T05:34:29;10.18;;;3.30;;
34499;SDS011;20745;50.882;6.962;2023-04-09T05:44:30;9.20;;;3.15;;
34499;SDS011;20745;50.882;6.962;2023-04-09T05:54:30;7.10;;;2.67;;
34499;SDS011;20745;50.882;6.962;2023-04-09T06:04:30;8.60;;;3.00;;
34499;SDS011;20745;50.882;6.962;2023-04-09T06:14:30;8.00;;;3.10;;
34499;SDS011;20745;50.882;6.962;2023-04-09T06:24:32;6.07;;;2.35;;
34499;SDS011;20745;50.882;6.962;2023-04-09T06:34:32;7.68;;;2.80;;
34499;SDS011;20745;50.882;6.962;2023-04-09T06:44:32;8.75;;;2.63;;
34499;SDS011;20745;50.882;6.962;2023-04-09T06:54:33;4.85;;;2.28;;
34499;SDS011;20745;50.882;6.962;2023-04-09T07:04:33;7.32;;;2.78;;
34499;SDS011;20745;50.882;6.962;2023-04-09T07:14:33;7.20;;;2.78;;
34499;SDS011;20745;50.882;6.962;2023-04-09T07:24:33;5.57;;;1.95;;
34499;SDS011;20745;50.882;6.962;2023-04-09T07:34:33;4.15;;;1.90;;
34499;SDS011;20745;50.882;6.962;2023-04-09T07:44:34;5.25;;;1.73;;
34499;SDS011;20745;50.882;6.962;2023-04-09T07:54:35;3.60;;;1.73;;
34499;SDS011;20745;50.882;6.962;2023-04-09T08:04:35;3.08;;;1.65;;
34499;SDS011;20745;50.882;6.962;2023-04-09T08:14:35;3.45;;;1.58;;
34499;SDS011;20745;50.882;6.962;2023-04-09T08:24:36;3.60;;;1.42;;
34499;SDS011;20745;50.882;6.962;2023-04-09T08:34:37;3.35;;;1.60;;
34499;SDS011;20745;50.882;6.962;2023-04-09T08:44:37;3.78;;;1.55;;
34499;SDS011;20745;50.882;6.962;2023-04-09T08:54:37;3.80;;;1.60;;
34499;SDS011;20745;50.882;6.962;2023-04-09T09:04:45;3.08;;;1.48;;
34499;SDS011;20745;50.882;6.962;2023-04-09T09:14:45;3.70;;;1.50;;
34499;SDS011;20745;50.882;6.962;2023-04-09T09:24:46;3.45;;;1.58;;
34499;SDS011;20745;50.882;6.962;2023-04-09T09:35:03;3.75;;;1.77;;
34499;SDS011;20745;50.882;6.962;2023-04-09T09:45:16;1.92;;;1.20;;
34499;SDS011;20745;50.882;6.962;2023-04-09T09:55:16;3.38;;;1.55;;
34499;SDS011;20745;50.882;6.962;2023-04-09T10:05:16;3.22;;;1.35;;
34499;SDS011;20745;50.882;6.962;2023-04-09T10:15:17;2.45;;;1.30;;
34499;SDS011;20745;50.882;6.962;2023-04-09T10:25:18;2.97;;;1.40;;
34499;SDS011;20745;50.882;6.962;2023-04-09T10:35:24;3.38;;;1.40;;
34499;SDS011;20745;50.882;6.962;2023-04-09T10:45:25;3.25;;;1.35;;
34499;SDS011;20745;50.882;6.962;2023-04-09T10:55:38;2.03;;;1.30;;
34499;SDS011;20745;50.882;6.962;2023-04-09T11:05:39;2.17;;;1.20;;
34499;SDS011;20745;50.882;6.962;2023-04-09T11:15:40;2.97;;;1.20;;
34499;SDS011;20745;50.882;6.962;2023-04-09T11:25:41;5.13;;;1.13;;
34499;SDS011;20745;50.882;6.962;2023-04-09T11:35:41;3.72;;;1.20;;
34499;SDS011;20745;50.882;6.962;2023-04-09T11:45:42;8.98;;;1.90;;
34499;SDS011;20745;50.882;6.962;2023-04-09T11:55:45;14.00;;;2.60;;
34499;SDS011;20745;50.882;6.962;2023-04-09T12:05:45;14.73;;;2.92;;
34499;SDS011;20745;50.882;6.962;2023-04-09T12:15:48;13.52;;;2.92;;
34499;SDS011;20745;50.882;6.962;2023-04-09T12:25:48;16.05;;;3.03;;
34499;SDS011;20745;50.882;6.962;2023-04-09T12:35:48;16.15;;;3.42;;
34499;SDS011;20745;50.882;6.962;2023-04-09T12:45:48;18.58;;;3.78;;
34499;SDS011;20745;50.882;6.962;2023-04-09T12:55:49;18.20;;;4.10;;
34499;SDS011;20745;50.882;6.962;2023-04-09T13:05:50;19.10;;;4.13;;
34499;SDS011;20745;50.882;6.962;2023-04-09T13:15:50;21.13;;;4.60;;
34499;SDS011;20745;50.882;6.962;2023-04-09T13:25:51;22.85;;;4.90;;
34499;SDS011;20745;50.882;6.962;2023-04-09T13:35:51;23.17;;;5.20;;
34499;SDS011;20745;50.882;6.962;2023-04-09T13:45:51;21.65;;;4.75;;
34499;SDS011;20745;50.882;6.962;2023-04-09T13:55:53;21.08;;;5.55;;
34499;SDS011;20745;50.882;6.962;2023-04-09T14:05:53;24.40;;;5.00;;
34499;SDS011;20745;50.882;6.962;2023-04-09T14:15:53;22.25;;;5.30;;
34499;SDS011;20745;50.882;6.962;2023-04-09T14:25:53;25.83;;;5.75;;
34499;SDS011;20745;50.882;6.962;2023-04-09T14:35:53;26.15;;;5.32;;
34499;SDS011;20745;50.882;6.962;2023-04-09T14:45:54;24.88;;;6.03;;
34499;SDS011;20745;50.882;6.962;2023-04-09T14:55:54;31.75;;;5.97;;
34499;SDS011;20745;50.882;6.962;2023-04-09T15:05:54;27.05;;;5.72;;
34499;SDS011;20745;50.882;6.962;2023-04-09T15:15:55;28.20;;;6.10;;
34499;SDS011;20745;50.882;6.962;2023-04-09T15:25:55;28.23;;;5.40;;
34499;SDS011;20745;50.882;6.962;2023-04-09T15:35:56;28.25;;;6.22;;
34499;SDS011;20745;50.882;6.962;2023-04-09T15:45:57;22.95;;;6.03;;
34499;SDS011;20745;50.882;6.962;2023-04-09T15:55:57;22.15;;;4.55;;
34499;SDS011;20745;50.882;6.962;2023-04-09T16:05:57;26.00;;;5.65;;
34499;SDS011;20745;50.882;6.962;2023-04-09T16:16:00;21.73;;;4.97;;
34499;SDS011;20745;50.882;6.962;2023-04-09T16:26:00;22.40;;;4.95;;
34499;SDS011;20745;50.882;6.962;2023-04-09T16:36:00;15.77;;;4.18;;
34499;SDS011;20745;50.882;6.962;2023-04-09T16:46:01;16.05;;;4.47;;
34499;SDS011;20745;50.882;6.962;2023-04-09T16:56:02;16.52;;;4.20;;
34499;SDS011;20745;50.882;6.962;2023-04-09T17:06:03;13.63;;;3.67;;
34499;SDS011;20745;50.882;6.962;2023-04-09T17:16:03;18.23;;;4.20;;
34499;SDS011;20745;50.882;6.962;2023-04-09T17:26:04;13.27;;;3.28;;
34499;SDS011;20745;50.882;6.962;2023-04-09T17:36:04;13.60;;;3.63;;
34499;SDS011;20745;50.882;6.962;2023-04-09T17:46:05;14.18;;;3.03;;
34499;SDS011;20745;50.882;6.962;2023-04-09T17:56:07;13.07;;;3.22;;
34499;SDS011;20745;50.882;6.962;2023-04-09T18:06:08;11.27;;;3.15;;
34499;SDS011;20745;50.882;6.962;2023-04-09T18:16:09;11.07;;;2.50;;
34499;SDS011;20745;50.882;6.962;2023-04-09T18:26:10;12.98;;;3.03;;
34499;SDS011;20745;50.882;6.962;2023-04-09T18:36:10;11.25;;;2.75;;
34499;SDS011;20745;50.882;6.962;2023-04-09T18:46:10;10.73;;;2.40;;
34499;SDS011;20745;50.882;6.962;2023-04-09T18:56:11;16.05;;;2.92;;
34499;SDS011;20745;50.882;6.962;2023-04-09T19:06:12;9.88;;;2.75;;
34499;SDS011;20745;50.882;6.962;2023-04-09T19:16:13;10.10;;;2.42;;
34499;SDS011;20745;50.882;6.962;2023-04-09T19:26:13;9.05;;;2.70;;
34499;SDS011;20745;50.882;6.962;2023-04-09T19:36:13;10.02;;;2.40;;
34499;SDS011;20745;50.882;6.962;2023-04-09T19:46:13;7.70;;;2.22;;
34499;SDS011;20745;50.882;6.962;2023-04-09T19:56:14;8.82;;;2.35;;
34499;SDS011;20745;50.882;6.962;2023-04-09T20:06:15;9.43;;;2.50;;
34499;SDS011;20745;50.882;6.962;2023-04-09T20:16:15;10.00;;;2.10;;
34499;SDS011;20745;50.882;6.962;2023-04-09T20:26:15;10.45;;;2.10;;
34499;SDS011;20745;50.882;6.962;2023-04-09T20:36:16;7.22;;;1.83;;
34499;SDS011;20745;50.882;6.962;2023-04-09T20:46:16;5.82;;;1.90;;
34499;SDS011;20745;50.882;6.962;2023-04-09T20:56:16;6.65;;;2.00;;
34499;SDS011;20745;50.882;6.962;2023-04-09T21:10:46;8.15;;;1.70;;
34499;SDS011;20745;50.882;6.962;2023-04-09T21:20:47;7.45;;;2.25;;
34499;SDS011;20745;50.882;6.962;2023-04-09T21:30:47;6.70;;;2.10;;
34499;SDS011;20745;50.882;6.962;2023-04-09T21:40:47;5.90;;;2.10;;
34499;SDS011;20745;50.882;6.962;2023-04-09T21:50:47;5.13;;;2.08;;
34499;SDS011;20745;50.882;6.962;2023-04-09T22:00:48;6.18;;;2.00;;
34499;SDS011;20745;50.882;6.962;2023-04-09T22:10:48;6.43;;;1.98;;
34499;SDS011;20745;50.882;6.962;2023-04-09T22:20:49;7.28;;;2.30;;
34499;SDS011;20745;50.882;6.962;2023-04-09T22:30:50;6.53;;;2.58;;
34499;SDS011;20745;50.882;6.962;2023-04-09T22:40:50;8.85;;;2.88;;
34499;SDS011;20745;50.882;6.962;2023-04-09T22:50:51;7.68;;;2.78;;
34499;SDS011;20745;50.882;6.962;2023-04-09T23:00:51;7.53;;;2.90;;
34499;SDS011;20745;50.882;6.962;2023-04-09T23:10:51;7.70;;;2.88;;
34499;SDS011;20745;50.882;6.962;2023-04-09T23:20:51;7.35;;;2.78;;
34499;SDS011;20745;50.882;6.962;2023-04-09T23:30:51;8.68;;;2.97;;
34499;SDS011;20745;50.882;6.962;2023-04-09T23:40:51;7.20;;;2.75;;
34499;SDS011;20745;50.882;6.962;2023-04-09T23:50:52;8.32;;;3.05;;
